フェニックス の空港の天気 - METARとTAF

フェニックス・スカイハーバー国際空港 ( KPHX / PHX ) - アメリカ アリゾナ州フェニックス
飛行場実況気象(Metar)
観測時間11/27 00:51 MST (11/27 07:51 UTC)
風向・風速東南東 3m/s
視程10km以上
天気現象
なし
気温10℃
湿度33%
気圧1015.6hPa
METARKPHX 270751Z 11005KT 10SM CLR 10/M06 A3001 RMK AO2 SLP156 T01001056
過去の天気等 Google飛行場航空写真 Wunderground天気予報

過去48時間のMETAR

飛行場予報(TAF)
発表時間: 11/27 01:53 MST (11/27 08:53 UTC)
予報対象時間: 27日2時 MST ~ 28日5時 MST
風向・風速東 3m/s
視程10km以上
なし
27日16時 MST から
風向・風速西南西 3m/s
視程10km以上
なし
27日21時 MST から
風向・風速東 3m/s
視程10km以上
全天の8割程度の雲 雲底高度 7620m
KPHX 270853Z 2709/2812 08005KT P6SM SKC
FM272300 25005KT P6SM SKC
FM280400 10005KT P6SM BKN250